createdAt,value
2023-05-12T00:01:01.423Z,3.50
2023-05-12T00:04:04.043Z,2.07
2023-05-12T00:07:07.456Z,2.60
2023-05-12T00:10:10.167Z,1.90
2023-05-12T00:13:12.635Z,2.63
2023-05-12T00:16:17.546Z,1.88
2023-05-12T00:19:21.129Z,1.90
2023-05-12T00:22:23.545Z,1.97
2023-05-12T00:25:25.971Z,1.92
2023-05-12T00:28:28.408Z,2.00
2023-05-12T00:31:31.110Z,3.28
2023-05-12T00:34:33.573Z,2.00
2023-05-12T00:37:36.008Z,2.57
2023-05-12T00:40:38.478Z,2.08
2023-05-12T00:43:40.944Z,2.88
2023-05-12T00:46:43.323Z,2.03
2023-05-12T00:49:45.754Z,2.53
2023-05-12T00:52:51.230Z,2.13
2023-05-12T00:55:55.673Z,3.47
2023-05-12T00:58:58.157Z,2.45
2023-05-12T01:02:01.270Z,1.80
2023-05-12T01:05:04.234Z,1.90
2023-05-12T01:08:06.959Z,2.90
2023-05-12T01:11:09.710Z,2.30
2023-05-12T01:14:12.216Z,2.15
2023-05-12T01:17:18.143Z,1.70
2023-05-12T01:20:23.242Z,2.53
2023-05-12T01:23:29.122Z,2.00
2023-05-12T01:26:32.573Z,2.95
2023-05-12T01:29:37.118Z,3.08
2023-05-12T01:32:40.656Z,1.90
2023-05-12T01:35:43.484Z,1.73
2023-05-12T01:38:46.076Z,1.67
2023-05-12T01:41:50.058Z,1.92
2023-05-12T01:44:52.890Z,1.80
2023-05-12T01:47:55.404Z,1.70
2023-05-12T01:51:01.017Z,2.17
2023-05-12T01:54:04.029Z,2.37
2023-05-12T01:57:09.325Z,2.33
2023-05-12T02:00:13.845Z,1.77
2023-05-12T02:03:16.674Z,2.70
2023-05-12T02:06:19.224Z,2.00
2023-05-12T02:09:22.989Z,1.90
2023-05-12T02:12:26.252Z,1.63
2023-05-12T02:15:28.692Z,2.28
2023-05-12T02:18:31.164Z,1.83
2023-05-12T02:21:33.633Z,1.73
2023-05-12T02:24:36.033Z,1.90
2023-05-12T02:27:38.822Z,1.58
2023-05-12T02:30:48.899Z,2.53
2023-05-12T02:33:51.712Z,1.50
2023-05-12T02:36:55.837Z,1.73
2023-05-12T02:39:58.200Z,1.87
2023-05-12T02:43:01.457Z,1.40
2023-05-12T02:46:04.076Z,2.03
2023-05-12T02:49:06.894Z,2.13
2023-05-12T02:52:09.775Z,2.00
2023-05-12T02:55:12.221Z,1.77
2023-05-12T02:58:14.860Z,2.95
2023-05-12T03:01:17.355Z,1.80
2023-05-12T03:04:19.740Z,1.65
2023-05-12T03:07:22.341Z,1.43
2023-05-12T03:10:24.868Z,1.93
2023-05-12T03:13:29.211Z,1.90
2023-05-12T03:16:31.690Z,1.20
2023-05-12T03:19:35.046Z,1.73
2023-05-12T03:22:37.544Z,1.80
2023-05-12T03:25:40.020Z,1.70
2023-05-12T03:28:43.103Z,1.70
2023-05-12T03:31:46.039Z,1.73
2023-05-12T03:34:49.803Z,4.30
2023-05-12T03:37:52.410Z,1.73
2023-05-12T03:41:06.753Z,1.63
2023-05-12T03:44:11.246Z,2.50
2023-05-12T03:47:13.905Z,2.42
2023-05-12T03:50:16.732Z,1.67
2023-05-12T03:53:19.779Z,1.37
2023-05-12T03:56:22.210Z,2.87
2023-05-12T03:59:24.744Z,2.20
2023-05-12T04:02:27.323Z,1.98
2023-05-12T04:05:29.828Z,1.67
2023-05-12T04:08:32.229Z,1.70
2023-05-12T04:11:35.812Z,3.10
2023-05-12T04:14:43.164Z,2.95
2023-05-12T04:17:46.062Z,2.30
2023-05-12T04:20:48.743Z,7.10
2023-05-12T04:23:52.967Z,4.17
2023-05-12T04:26:59.166Z,4.50
2023-05-12T04:30:01.785Z,6.95
2023-05-12T04:33:07.471Z,4.50
2023-05-12T04:36:10.148Z,3.97
2023-05-12T04:39:13.046Z,3.83
2023-05-12T04:42:16.029Z,7.80
2023-05-12T04:45:18.969Z,2.20
2023-05-12T04:48:22.154Z,4.50
2023-05-12T04:51:24.660Z,4.65
2023-05-12T04:54:27.080Z,2.07
2023-05-12T04:57:30.154Z,4.60
2023-05-12T05:00:33.040Z,6.53
2023-05-12T05:03:36.038Z,5.40
2023-05-12T05:06:39.314Z,3.80
2023-05-12T05:09:41.956Z,2.33
2023-05-12T05:12:44.377Z,3.63
2023-05-12T05:15:52.147Z,1.98
2023-05-12T05:18:55.254Z,2.40
2023-05-12T05:21:59.195Z,2.85
2023-05-12T05:25:01.831Z,2.30
2023-05-12T05:28:04.533Z,2.43
2023-05-12T05:31:08.022Z,2.35
2023-05-12T05:34:11.227Z,3.53
2023-05-12T05:37:13.855Z,2.15
2023-05-12T05:40:16.366Z,7.83
2023-05-12T05:43:19.132Z,3.70
2023-05-12T05:46:21.710Z,6.32
2023-05-12T05:49:24.418Z,4.63
2023-05-12T05:52:27.524Z,3.92
2023-05-12T05:55:30.024Z,3.43
2023-05-12T05:59:02.549Z,7.27
2023-05-12T06:02:06.784Z,6.45
2023-05-12T06:05:09.793Z,8.23
2023-05-12T06:08:13.621Z,7.35
2023-05-12T06:11:21.469Z,5.63
2023-05-12T06:14:24.037Z,8.33
2023-05-12T06:17:26.840Z,12.55
2023-05-12T06:20:29.362Z,9.32
2023-05-12T06:23:32.091Z,6.22
2023-05-12T06:26:34.486Z,7.73
2023-05-12T06:29:36.903Z,6.63
2023-05-12T06:32:39.370Z,8.73
2023-05-12T06:35:41.788Z,7.40
2023-05-12T06:38:44.144Z,8.27
2023-05-12T06:41:48.839Z,6.73
2023-05-12T06:44:58.197Z,4.90
2023-05-12T06:48:01.807Z,9.07
2023-05-12T06:51:04.607Z,6.97
2023-05-12T06:54:07.549Z,5.35
2023-05-12T06:57:11.030Z,8.73
2023-05-12T07:00:14.196Z,7.27
2023-05-12T07:03:17.056Z,10.55
2023-05-12T07:06:19.632Z,7.10
2023-05-12T07:09:22.353Z,8.38
2023-05-12T07:12:24.859Z,17.70
2023-05-12T07:15:27.342Z,7.97
2023-05-12T07:18:29.850Z,9.27
2023-05-12T07:21:32.485Z,6.25
2023-05-12T07:24:35.157Z,7.20
2023-05-12T07:27:37.661Z,8.83
2023-05-12T07:30:40.017Z,7.50
2023-05-12T07:33:43.119Z,7.88
2023-05-12T07:36:45.527Z,6.68
2023-05-12T07:39:47.926Z,7.55
2023-05-12T07:42:51.040Z,8.50
2023-05-12T07:45:54.738Z,9.97
2023-05-12T07:48:59.833Z,12.70
2023-05-12T07:52:02.516Z,10.10
2023-05-12T07:55:05.166Z,7.35
2023-05-12T07:58:07.558Z,9.27
2023-05-12T08:01:10.308Z,10.67
2023-05-12T08:04:12.763Z,9.80
2023-05-12T08:07:15.841Z,15.07
2023-05-12T08:10:19.519Z,8.93
2023-05-12T08:13:22.443Z,9.23
2023-05-12T08:16:25.014Z,10.17
2023-05-12T08:19:29.882Z,13.02
2023-05-12T08:22:32.484Z,8.43
2023-05-12T08:25:37.166Z,12.88
2023-05-12T08:28:39.626Z,7.37
2023-05-12T08:31:42.125Z,18.30
2023-05-12T08:34:44.629Z,9.00
2023-05-12T08:37:47.052Z,4.75
2023-05-12T08:41:13.780Z,7.43
2023-05-12T08:44:16.383Z,12.63
2023-05-12T08:47:19.351Z,10.07
2023-05-12T08:50:22.964Z,7.13
2023-05-12T08:53:26.044Z,15.90
2023-05-12T08:59:34.879Z,7.07
2023-05-12T09:02:52.036Z,8.80
2023-05-12T09:05:57.848Z,16.30
2023-05-12T09:09:00.376Z,11.60
2023-05-12T09:12:03.626Z,12.57
2023-05-12T09:15:08.050Z,9.77
2023-05-12T09:18:11.293Z,9.70
2023-05-12T09:21:14.232Z,8.75
2023-05-12T09:24:17.246Z,9.13
2023-05-12T09:27:27.526Z,11.30
2023-05-12T09:30:31.647Z,13.20
2023-05-12T09:33:36.198Z,11.13
2023-05-12T09:36:38.640Z,9.55
2023-05-12T09:39:41.184Z,11.80
2023-05-12T09:42:44.364Z,9.45
2023-05-12T09:45:50.258Z,11.03
2023-05-12T09:48:56.358Z,8.80
2023-05-12T09:52:23.495Z,11.65
2023-05-12T09:56:28.793Z,11.30
2023-05-12T09:59:40.487Z,9.45
2023-05-12T10:02:47.925Z,6.90
2023-05-12T10:05:58.826Z,12.17
2023-05-12T10:09:06.014Z,9.88
2023-05-12T10:12:09.171Z,9.70
2023-05-12T10:15:12.878Z,11.30
2023-05-12T10:18:17.685Z,6.63
2023-05-12T10:21:20.892Z,6.50
2023-05-12T10:24:27.102Z,7.40
2023-05-12T10:27:29.987Z,8.18
2023-05-12T10:31:09.400Z,8.02
2023-05-12T10:34:18.711Z,7.37
2023-05-12T10:37:25.967Z,7.23
2023-05-12T10:40:28.616Z,11.77
2023-05-12T10:43:42.178Z,9.73
2023-05-12T10:46:45.795Z,7.45
2023-05-12T10:49:48.539Z,11.23
2023-05-12T10:52:55.056Z,8.03
2023-05-12T10:55:57.723Z,6.70
2023-05-12T10:59:22.892Z,10.38
2023-05-12T11:02:32.509Z,8.07
2023-05-12T11:05:37.395Z,8.20
2023-05-12T11:08:42.167Z,8.20
2023-05-12T11:11:45.696Z,11.55
2023-05-12T11:14:48.860Z,12.38
2023-05-12T11:17:51.877Z,10.55
2023-05-12T11:20:54.333Z,8.70
2023-05-12T11:23:57.762Z,6.90
2023-05-12T11:27:00.176Z,9.38
2023-05-12T11:30:04.522Z,9.90
2023-05-12T11:33:07.103Z,7.53
2023-05-12T11:36:09.898Z,9.27
2023-05-12T11:39:28.818Z,9.47
2023-05-12T11:42:31.356Z,7.80
2023-05-12T11:45:34.884Z,10.90
2023-05-12T11:48:37.292Z,9.90
2023-05-12T11:51:43.298Z,10.50
2023-05-12T11:54:53.579Z,7.83
2023-05-12T11:58:04.303Z,6.93
2023-05-12T12:01:12.010Z,6.53
2023-05-12T12:04:17.630Z,6.88
2023-05-12T12:07:33.777Z,8.73
2023-05-12T12:10:36.398Z,8.33
2023-05-12T12:13:41.738Z,8.52
2023-05-12T12:16:44.222Z,7.95
2023-05-12T12:19:53.568Z,7.63
2023-05-12T12:22:56.019Z,10.77
2023-05-12T12:25:58.478Z,9.53
2023-05-12T12:29:00.817Z,11.65
2023-05-12T12:32:03.336Z,8.93
2023-05-12T12:35:06.796Z,8.13
2023-05-12T12:38:09.249Z,6.40
2023-05-12T12:41:11.888Z,8.13
2023-05-12T12:44:14.631Z,7.25
2023-05-12T12:47:18.040Z,4.05
2023-05-12T12:50:21.075Z,5.70
2023-05-12T12:53:23.878Z,5.87
2023-05-12T12:56:26.459Z,6.27
2023-05-12T12:59:28.882Z,7.30
2023-05-12T13:02:31.390Z,8.95
2023-05-12T13:05:34.309Z,7.80
2023-05-12T13:08:37.032Z,8.87
2023-05-12T13:11:39.738Z,8.37
2023-05-12T13:14:42.188Z,6.85
2023-05-12T13:17:47.910Z,7.25
2023-05-12T13:20:50.514Z,9.43
2023-05-12T13:23:52.948Z,8.90
2023-05-12T13:26:55.668Z,9.93
2023-05-12T13:29:58.231Z,7.60
2023-05-12T13:33:01.561Z,5.35
2023-05-12T13:36:05.024Z,6.85
2023-05-12T13:39:09.230Z,8.53
2023-05-12T13:42:11.564Z,7.50
2023-05-12T13:45:13.966Z,12.98
2023-05-12T13:48:17.556Z,6.88
2023-05-12T13:51:20.211Z,10.50
2023-05-12T13:54:22.686Z,6.37
2023-05-12T13:57:25.234Z,6.67
2023-05-12T14:00:29.870Z,8.90
2023-05-12T14:03:32.409Z,5.38
2023-05-12T14:06:35.170Z,9.13
2023-05-12T14:09:37.672Z,7.13
2023-05-12T14:12:42.625Z,7.90
2023-05-12T14:15:49.087Z,4.85
2023-05-12T14:18:55.895Z,6.93
2023-05-12T14:21:58.476Z,5.28
2023-05-12T14:25:01.629Z,4.53
2023-05-12T14:28:04.304Z,10.57
2023-05-12T14:31:06.931Z,7.93
2023-05-12T14:34:10.144Z,9.60
2023-05-12T14:37:12.856Z,9.95
2023-05-12T14:40:15.348Z,8.00
2023-05-12T14:43:17.912Z,8.10
2023-05-12T14:46:20.442Z,4.85
2023-05-12T14:49:22.905Z,6.70
2023-05-12T14:52:25.300Z,5.50
2023-05-12T14:55:29.907Z,5.37
2023-05-12T14:58:32.432Z,4.67
2023-05-12T15:01:35.062Z,6.78
2023-05-12T15:04:37.626Z,5.32
2023-05-12T15:07:40.184Z,7.72
2023-05-12T15:10:44.249Z,8.37
2023-05-12T15:13:46.697Z,7.60
2023-05-12T15:16:49.358Z,7.32
2023-05-12T15:19:52.194Z,7.88
2023-05-12T15:22:54.674Z,7.47
2023-05-12T15:25:58.020Z,9.90
2023-05-12T15:29:00.709Z,18.60
2023-05-12T15:32:03.328Z,8.35
2023-05-12T15:35:06.617Z,12.48
2023-05-12T15:38:09.265Z,7.85
2023-05-12T15:41:11.911Z,10.67
2023-05-12T15:44:14.320Z,12.07
2023-05-12T15:47:25.554Z,10.13
2023-05-12T15:50:27.967Z,9.38
2023-05-12T15:53:30.692Z,12.07
2023-05-12T15:56:33.155Z,9.93
2023-05-12T15:59:36.653Z,6.80
2023-05-12T16:02:39.237Z,7.03
2023-05-12T16:05:41.872Z,11.75
2023-05-12T16:08:44.280Z,7.53
2023-05-12T16:11:46.782Z,9.80
2023-05-12T16:14:52.432Z,6.53
2023-05-12T16:17:54.890Z,12.25
2023-05-12T16:20:57.940Z,8.90
2023-05-12T16:24:00.445Z,7.53
2023-05-12T16:27:02.837Z,8.47
2023-05-12T16:30:06.142Z,12.60
2023-05-12T16:33:08.862Z,7.65
2023-05-12T16:36:11.482Z,6.78
2023-05-12T16:39:13.993Z,8.48
2023-05-12T16:42:16.467Z,8.17
2023-05-12T16:45:19.304Z,10.27
2023-05-12T16:48:22.637Z,5.68
2023-05-12T16:51:25.197Z,6.93
2023-05-12T16:54:27.634Z,7.68
2023-05-12T16:57:30.454Z,8.87
2023-05-12T17:00:32.940Z,5.20
2023-05-12T17:03:35.610Z,6.22
2023-05-12T17:06:38.168Z,5.18
2023-05-12T17:09:40.732Z,8.13
2023-05-12T17:12:43.445Z,7.00
2023-05-12T17:15:45.988Z,6.77
2023-05-12T17:21:54.887Z,5.97
2023-05-12T17:24:57.412Z,7.43
2023-05-12T17:27:59.819Z,7.43
2023-05-12T17:31:02.297Z,5.50
2023-05-12T17:34:04.886Z,4.90
2023-05-12T17:37:07.603Z,7.90
2023-05-12T17:40:16.008Z,8.13
2023-05-12T17:43:18.627Z,5.87
2023-05-12T17:46:21.049Z,5.33
2023-05-12T17:49:23.793Z,4.00
2023-05-12T17:52:26.234Z,6.40
2023-05-12T17:55:28.762Z,4.28
2023-05-12T17:58:31.735Z,6.87
2023-05-12T18:01:34.288Z,6.23
2023-05-12T18:04:36.814Z,6.25
2023-05-12T18:07:39.388Z,4.65
2023-05-12T18:10:41.888Z,6.95
2023-05-12T18:13:44.306Z,5.87
2023-05-12T18:16:46.783Z,5.53
2023-05-12T18:19:49.313Z,6.97
2023-05-12T18:22:52.079Z,4.85
2023-05-12T18:25:54.497Z,4.72
2023-05-12T18:28:56.894Z,5.00
2023-05-12T18:31:59.356Z,7.03
2023-05-12T18:35:02.021Z,4.43
2023-05-12T18:38:04.579Z,7.32
2023-05-12T18:41:07.622Z,4.25
2023-05-12T18:44:10.586Z,6.63
2023-05-12T18:47:13.024Z,6.40
2023-05-12T18:50:15.527Z,4.53
2023-05-12T18:53:17.999Z,4.75
2023-05-12T18:56:20.541Z,5.10
2023-05-12T18:59:22.996Z,5.60
2023-05-12T19:02:25.488Z,4.63
2023-05-12T19:05:28.017Z,5.90
2023-05-12T19:08:30.609Z,5.43
2023-05-12T19:11:33.045Z,4.47
2023-05-12T19:14:35.570Z,5.50
2023-05-12T19:17:37.999Z,5.17
2023-05-12T19:20:40.604Z,5.20
2023-05-12T19:23:43.195Z,4.07
2023-05-12T19:26:45.673Z,5.63
2023-05-12T19:29:48.683Z,4.50
2023-05-12T19:32:51.346Z,5.70
2023-05-12T19:35:54.745Z,3.80
2023-05-12T19:38:59.638Z,4.38
2023-05-12T19:42:02.156Z,4.50
2023-05-12T19:45:05.351Z,4.87
2023-05-12T19:48:07.870Z,5.40
2023-05-12T19:51:10.678Z,4.35
2023-05-12T19:54:13.541Z,3.55
2023-05-12T19:57:16.044Z,3.08
2023-05-12T20:00:19.461Z,3.80
2023-05-12T20:03:22.014Z,3.23
2023-05-12T20:06:25.071Z,3.90
2023-05-12T20:09:27.429Z,6.70
2023-05-12T20:12:29.862Z,6.07
2023-05-12T20:15:34.161Z,3.60
2023-05-12T20:18:36.605Z,3.93
2023-05-12T20:21:39.467Z,5.38
2023-05-12T20:24:41.928Z,3.60
2023-05-12T20:27:45.168Z,2.83
2023-05-12T20:30:47.569Z,4.10
2023-05-12T20:33:50.037Z,6.33
2023-05-12T20:36:52.406Z,6.10
2023-05-12T20:39:55.714Z,4.30
2023-05-12T20:42:58.156Z,4.82
2023-05-12T20:46:03.991Z,5.47
2023-05-12T20:49:06.999Z,3.10
2023-05-12T20:52:09.523Z,4.63
2023-05-12T20:55:12.045Z,4.00
2023-05-12T20:58:14.600Z,3.85
2023-05-12T21:01:17.346Z,4.53
2023-05-12T21:04:20.044Z,3.83
2023-05-12T21:07:22.563Z,7.60
2023-05-12T21:10:25.199Z,3.00
2023-05-12T21:13:27.854Z,6.35
2023-05-12T21:16:30.708Z,3.23
2023-05-12T21:19:37.018Z,3.17
2023-05-12T21:22:40.818Z,3.55
2023-05-12T21:25:43.624Z,4.03
2023-05-12T21:28:46.077Z,4.25
2023-05-12T21:31:48.675Z,3.80
2023-05-12T21:34:51.139Z,4.30
2023-05-12T21:37:53.624Z,2.95
2023-05-12T21:40:56.512Z,3.72
2023-05-12T21:43:58.914Z,3.38
2023-05-12T21:47:03.551Z,3.73
2023-05-12T21:50:06.383Z,3.77
2023-05-12T21:53:08.955Z,3.42
2023-05-12T21:56:11.489Z,3.55
2023-05-12T21:59:14.010Z,2.97
2023-05-12T22:02:16.688Z,4.87
2023-05-12T22:05:19.246Z,3.57
2023-05-12T22:08:21.877Z,3.53
2023-05-12T22:11:24.402Z,3.45
2023-05-12T22:14:26.871Z,3.10
2023-05-12T22:17:29.360Z,2.73
2023-05-12T22:20:31.958Z,3.13
2023-05-12T22:23:34.346Z,3.28
2023-05-12T22:26:36.797Z,3.72
2023-05-12T22:29:39.219Z,2.90
2023-05-12T22:32:41.742Z,3.40
2023-05-12T22:35:44.281Z,3.60
2023-05-12T22:38:46.741Z,4.68
2023-05-12T22:41:49.307Z,2.80
2023-05-12T22:44:52.020Z,5.72
2023-05-12T22:47:55.029Z,2.73
2023-05-12T22:50:57.408Z,3.43
2023-05-12T22:53:59.893Z,3.25
2023-05-12T22:57:02.363Z,3.40
2023-05-12T23:00:05.896Z,2.97
2023-05-12T23:03:08.357Z,3.40
2023-05-12T23:06:10.852Z,2.53
2023-05-12T23:09:13.288Z,2.40
2023-05-12T23:12:15.830Z,2.97
2023-05-12T23:15:19.667Z,2.72
2023-05-12T23:18:22.168Z,4.20
2023-05-12T23:21:24.592Z,4.10
2023-05-12T23:24:27.141Z,2.88
2023-05-12T23:27:29.598Z,2.67
2023-05-12T23:30:32.260Z,3.17
2023-05-12T23:33:34.868Z,3.40
2023-05-12T23:36:37.488Z,2.80
2023-05-12T23:39:39.872Z,2.28
2023-05-12T23:42:42.294Z,3.83
2023-05-12T23:45:45.316Z,3.38
2023-05-12T23:48:47.663Z,3.30
2023-05-12T23:51:50.152Z,2.50
2023-05-12T23:54:53.161Z,3.03
2023-05-12T23:57:55.658Z,3.00
